sensor_id;sensor_type;location;lat;lon;timestamp;pressure;altitude;pressure_sealevel;temperature;humidity
71194;BME280;58903;47.210;8.618;2022-10-04T00:01:10;94796.13;;;25.52;45.78
71194;BME280;58903;47.210;8.618;2022-10-04T00:03:43;94800.16;;;25.51;44.75
71194;BME280;58903;47.210;8.618;2022-10-04T00:06:24;94797.66;;;25.53;44.92
71194;BME280;58903;47.210;8.618;2022-10-04T00:09:03;94797.13;;;25.49;45.56
71194;BME280;58903;47.210;8.618;2022-10-04T00:11:41;94789.13;;;25.51;44.99
71194;BME280;58903;47.210;8.618;2022-10-04T00:14:18;94785.63;;;25.51;44.69
71194;BME280;58903;47.210;8.618;2022-10-04T00:16:50;94784.34;;;25.52;45.16
71194;BME280;58903;47.210;8.618;2022-10-04T00:24:36;94792.38;;;25.50;45.56
71194;BME280;58903;47.210;8.618;2022-10-04T00:30:23;94797.88;;;25.50;45.11
71194;BME280;58903;47.210;8.618;2022-10-04T00:33:02;94793.38;;;25.47;45.77
71194;BME280;58903;47.210;8.618;2022-10-04T00:38:11;94793.63;;;25.49;45.21
71194;BME280;58903;47.210;8.618;2022-10-04T00:41:06;94793.38;;;25.47;44.79
71194;BME280;58903;47.210;8.618;2022-10-04T00:46:58;94791.88;;;25.46;45.70
71194;BME280;58903;47.210;8.618;2022-10-04T00:49:40;94795.38;;;25.46;44.98
71194;BME280;58903;47.210;8.618;2022-10-04T00:52:26;94798.13;;;25.46;45.20
71194;BME280;58903;47.210;8.618;2022-10-04T00:55:03;94794.38;;;25.43;44.90
71194;BME280;58903;47.210;8.618;2022-10-04T00:57:50;94790.88;;;25.43;45.07
71194;BME280;58903;47.210;8.618;2022-10-04T01:00:20;94793.63;;;25.43;45.65
71194;BME280;58903;47.210;8.618;2022-10-04T01:03:03;94795.13;;;25.44;45.76
71194;BME280;58903;47.210;8.618;2022-10-04T01:05:43;94793.34;;;25.41;45.43
71194;BME280;58903;47.210;8.618;2022-10-04T01:08:45;94791.34;;;25.41;45.26
71194;BME280;58903;47.210;8.618;2022-10-04T01:11:26;94788.34;;;25.39;44.95
71194;BME280;58903;47.210;8.618;2022-10-04T01:14:09;94789.09;;;25.40;45.24
71194;BME280;58903;47.210;8.618;2022-10-04T01:16:39;94782.09;;;25.39;45.61
71194;BME280;58903;47.210;8.618;2022-10-04T01:19:47;94786.34;;;25.40;45.06
71194;BME280;58903;47.210;8.618;2022-10-04T01:25:03;94778.31;;;25.36;45.35
71194;BME280;58903;47.210;8.618;2022-10-04T01:30:07;94774.31;;;25.37;45.33
71194;BME280;58903;47.210;8.618;2022-10-04T01:32:36;94768.06;;;25.37;45.11
71194;BME280;58903;47.210;8.618;2022-10-04T01:35:14;94771.31;;;25.35;44.62
71194;BME280;58903;47.210;8.618;2022-10-04T01:37:45;94769.31;;;25.36;45.77
71194;BME280;58903;47.210;8.618;2022-10-04T01:40:29;94760.31;;;25.35;44.72
71194;BME280;58903;47.210;8.618;2022-10-04T01:43:13;94754.81;;;25.35;45.28
71194;BME280;58903;47.210;8.618;2022-10-04T01:49:23;94755.78;;;25.32;45.38
71194;BME280;58903;47.210;8.618;2022-10-04T01:52:21;94750.78;;;25.31;45.14
71194;BME280;58903;47.210;8.618;2022-10-04T01:55:18;94759.31;;;25.33;44.74
71194;BME280;58903;47.210;8.618;2022-10-04T01:58:00;94766.81;;;25.32;45.50
71194;BME280;58903;47.210;8.618;2022-10-04T02:00:45;94755.78;;;25.32;45.17
71194;BME280;58903;47.210;8.618;2022-10-04T02:03:27;94759.06;;;25.31;45.38
71194;BME280;58903;47.210;8.618;2022-10-04T02:06:01;94761.06;;;25.30;45.41
71194;BME280;58903;47.210;8.618;2022-10-04T02:08:57;94751.56;;;25.31;45.67
71194;BME280;58903;47.210;8.618;2022-10-04T02:11:29;94759.06;;;25.31;45.47
71194;BME280;58903;47.210;8.618;2022-10-04T02:14:16;94753.56;;;25.31;44.75
71194;BME280;58903;47.210;8.618;2022-10-04T02:17:13;94757.53;;;25.30;44.82
71194;BME280;58903;47.210;8.618;2022-10-04T02:19:42;94751.28;;;25.29;44.92
71194;BME280;58903;47.210;8.618;2022-10-04T02:22:11;94750.53;;;25.29;45.40
71194;BME280;58903;47.210;8.618;2022-10-04T02:24:42;94749.03;;;25.28;45.15
71194;BME280;58903;47.210;8.618;2022-10-04T02:27:09;94751.53;;;25.26;44.87
71194;BME280;58903;47.210;8.618;2022-10-04T02:29:35;94754.28;;;25.26;45.67
71194;BME280;58903;47.210;8.618;2022-10-04T02:32:04;94750.06;;;25.25;45.62
71194;BME280;58903;47.210;8.618;2022-10-04T02:34:52;94746.53;;;25.24;44.77
71194;BME280;58903;47.210;8.618;2022-10-04T02:37:27;94745.28;;;25.25;45.25
71194;BME280;58903;47.210;8.618;2022-10-04T02:40:02;94745.53;;;25.22;45.25
71194;BME280;58903;47.210;8.618;2022-10-04T02:43:08;94735.53;;;25.24;45.45
71194;BME280;58903;47.210;8.618;2022-10-04T02:45:59;94745.78;;;25.24;45.68
71194;BME280;58903;47.210;8.618;2022-10-04T02:48:44;94739.28;;;25.21;44.99
71194;BME280;58903;47.210;8.618;2022-10-04T02:54:04;94744.00;;;25.21;45.65
71194;BME280;58903;47.210;8.618;2022-10-04T02:56:50;94751.03;;;25.22;45.54
71194;BME280;58903;47.210;8.618;2022-10-04T02:59:21;94742.53;;;25.20;45.62
71194;BME280;58903;47.210;8.618;2022-10-04T03:02:24;94731.28;;;25.18;45.47
71194;BME280;58903;47.210;8.618;2022-10-04T03:04:58;94742.28;;;25.18;45.80
71194;BME280;58903;47.210;8.618;2022-10-04T03:07:50;94734.03;;;25.18;44.81
71194;BME280;58903;47.210;8.618;2022-10-04T03:10:29;94729.75;;;25.17;45.72
71194;BME280;58903;47.210;8.618;2022-10-04T03:13:05;94722.75;;;25.16;44.90
71194;BME280;58903;47.210;8.618;2022-10-04T03:15:34;94724.25;;;25.17;45.69
71194;BME280;58903;47.210;8.618;2022-10-04T03:18:01;94717.50;;;25.18;45.03
71194;BME280;58903;47.210;8.618;2022-10-04T03:20:28;94720.00;;;25.16;45.69
71194;BME280;58903;47.210;8.618;2022-10-04T03:22:58;94717.25;;;25.16;45.51
71194;BME280;58903;47.210;8.618;2022-10-04T03:25:34;94724.75;;;25.15;45.13
71194;BME280;58903;47.210;8.618;2022-10-04T03:28:05;94713.50;;;25.13;45.55
71194;BME280;58903;47.210;8.618;2022-10-04T03:30:33;94714.50;;;25.16;45.33
71194;BME280;58903;47.210;8.618;2022-10-04T03:33:03;94712.50;;;25.16;45.32
71194;BME280;58903;47.210;8.618;2022-10-04T03:38:35;94711.97;;;25.12;45.10
71194;BME280;58903;47.210;8.618;2022-10-04T03:41:15;94708.75;;;25.14;45.26
71194;BME280;58903;47.210;8.618;2022-10-04T03:43:53;94713.50;;;25.13;45.69
71194;BME280;58903;47.210;8.618;2022-10-04T03:46:27;94707.75;;;25.11;44.83
71194;BME280;58903;47.210;8.618;2022-10-04T03:48:58;94714.72;;;25.12;45.23
71194;BME280;58903;47.210;8.618;2022-10-04T03:51:26;94714.50;;;25.10;44.91
71194;BME280;58903;47.210;8.618;2022-10-04T03:53:59;94712.50;;;25.11;45.62
71194;BME280;58903;47.210;8.618;2022-10-04T03:56:34;94722.00;;;25.10;45.80
71194;BME280;58903;47.210;8.618;2022-10-04T03:59:05;94731.00;;;25.10;45.62
71194;BME280;58903;47.210;8.618;2022-10-04T04:07:37;94727.25;;;25.08;45.84
71194;BME280;58903;47.210;8.618;2022-10-04T04:10:17;94730.00;;;25.08;45.40
71194;BME280;58903;47.210;8.618;2022-10-04T04:15:38;94730.00;;;25.08;44.81
71194;BME280;58903;47.210;8.618;2022-10-04T04:18:22;94730.25;;;25.04;45.67
71194;BME280;58903;47.210;8.618;2022-10-04T04:20:52;94723.50;;;25.05;45.32
71194;BME280;58903;47.210;8.618;2022-10-04T04:23:34;94732.50;;;25.06;45.20
71194;BME280;58903;47.210;8.618;2022-10-04T04:28:51;94727.00;;;25.06;45.95
71194;BME280;58903;47.210;8.618;2022-10-04T04:31:40;94727.75;;;25.06;44.90
71194;BME280;58903;47.210;8.618;2022-10-04T04:37:19;94718.47;;;25.04;45.64
71194;BME280;58903;47.210;8.618;2022-10-04T04:39:55;94718.22;;;25.02;45.89
71194;BME280;58903;47.210;8.618;2022-10-04T04:45:03;94720.97;;;25.02;45.21
71194;BME280;58903;47.210;8.618;2022-10-04T04:47:46;94728.75;;;25.03;45.35
71194;BME280;58903;47.210;8.618;2022-10-04T04:50:39;94730.25;;;25.04;45.76
71194;BME280;58903;47.210;8.618;2022-10-04T04:53:27;94730.50;;;25.06;46.13
71194;BME280;58903;47.210;8.618;2022-10-04T04:55:58;94729.75;;;25.06;45.69
71194;BME280;58903;47.210;8.618;2022-10-04T04:58:32;94731.00;;;25.05;46.01
71194;BME280;58903;47.210;8.618;2022-10-04T05:10:48;94740.28;;;25.07;45.34
71194;BME280;58903;47.210;8.618;2022-10-04T05:13:51;94728.25;;;25.05;45.79
71194;BME280;58903;47.210;8.618;2022-10-04T05:16:47;94732.25;;;25.04;45.54
71194;BME280;58903;47.210;8.618;2022-10-04T05:19:38;94735.00;;;25.04;44.78
71194;BME280;58903;47.210;8.618;2022-10-04T05:22:10;94740.50;;;25.04;45.25
71194;BME280;58903;47.210;8.618;2022-10-04T05:24:42;94751.50;;;25.04;45.77
71194;BME280;58903;47.210;8.618;2022-10-04T05:27:16;94750.03;;;25.03;45.01
71194;BME280;58903;47.210;8.618;2022-10-04T05:35:17;94752.28;;;24.99;45.58
71194;BME280;58903;47.210;8.618;2022-10-04T05:43:31;94749.50;;;24.93;45.05
71194;BME280;58903;47.210;8.618;2022-10-04T05:46:33;94752.03;;;24.97;46.15
71194;BME280;58903;47.210;8.618;2022-10-04T05:49:21;94757.25;;;24.95;45.32
71194;BME280;58903;47.210;8.618;2022-10-04T05:51:59;94754.78;;;24.97;45.89
71194;BME280;58903;47.210;8.618;2022-10-04T05:54:34;94755.25;;;24.95;45.82
71194;BME280;58903;47.210;8.618;2022-10-04T06:00:12;94758.25;;;24.92;45.75
71194;BME280;58903;47.210;8.618;2022-10-04T06:11:35;94760.00;;;24.95;46.41
71194;BME280;58903;47.210;8.618;2022-10-04T06:20:19;94762.50;;;24.93;46.55
71194;BME280;58903;47.210;8.618;2022-10-04T06:23:20;94758.50;;;24.94;46.49
71194;BME280;58903;47.210;8.618;2022-10-04T06:26:06;94758.50;;;24.94;46.17
71194;BME280;58903;47.210;8.618;2022-10-04T06:28:48;94758.50;;;24.94;46.02
71194;BME280;58903;47.210;8.618;2022-10-04T06:37:45;94772.53;;;24.96;45.91
71194;BME280;58903;47.210;8.618;2022-10-04T06:40:23;94773.28;;;24.96;46.57
71194;BME280;58903;47.210;8.618;2022-10-04T06:49:27;94788.78;;;24.94;45.74
71194;BME280;58903;47.210;8.618;2022-10-04T07:01:02;94794.03;;;24.92;46.42
71194;BME280;58903;47.210;8.618;2022-10-04T07:06:12;94798.00;;;24.91;46.41
71194;BME280;58903;47.210;8.618;2022-10-04T07:08:57;94791.28;;;24.92;45.91
71194;BME280;58903;47.210;8.618;2022-10-04T07:11:58;94790.50;;;24.91;46.36
71194;BME280;58903;47.210;8.618;2022-10-04T07:14:37;94787.00;;;24.91;46.37
71194;BME280;58903;47.210;8.618;2022-10-04T07:17:23;94789.75;;;24.91;46.65
71194;BME280;58903;47.210;8.618;2022-10-04T07:19:55;94794.03;;;24.92;46.36
71194;BME280;58903;47.210;8.618;2022-10-04T07:22:41;94789.78;;;24.96;46.61
71194;BME280;58903;47.210;8.618;2022-10-04T07:25:26;94801.56;;;24.97;45.99
71194;BME280;58903;47.210;8.618;2022-10-04T07:31:08;94800.03;;;24.96;46.70
71194;BME280;58903;47.210;8.618;2022-10-04T07:33:47;94804.53;;;24.93;46.65
71194;BME280;58903;47.210;8.618;2022-10-04T07:36:51;94801.53;;;24.91;46.09
71194;BME280;58903;47.210;8.618;2022-10-04T07:39:32;94804.28;;;24.91;45.92
71194;BME280;58903;47.210;8.618;2022-10-04T07:45:22;94803.00;;;24.87;45.86
71194;BME280;58903;47.210;8.618;2022-10-04T07:48:01;94806.00;;;24.89;46.55
71194;BME280;58903;47.210;8.618;2022-10-04T07:50:38;94808.75;;;24.89;45.95
71194;BME280;58903;47.210;8.618;2022-10-04T07:53:30;94810.28;;;24.90;46.60
71194;BME280;58903;47.210;8.618;2022-10-04T07:59:03;94816.28;;;24.94;46.13
71194;BME280;58903;47.210;8.618;2022-10-04T08:01:45;94815.78;;;24.95;45.80
71194;BME280;58903;47.210;8.618;2022-10-04T08:07:22;94806.56;;;24.98;45.37
71194;BME280;58903;47.210;8.618;2022-10-04T08:10:02;94821.53;;;24.97;46.00
71194;BME280;58903;47.210;8.618;2022-10-04T08:13:20;94824.03;;;24.95;46.34
71194;BME280;58903;47.210;8.618;2022-10-04T08:15:58;94816.53;;;24.96;46.17
71194;BME280;58903;47.210;8.618;2022-10-04T08:18:35;94823.56;;;24.97;46.28
71194;BME280;58903;47.210;8.618;2022-10-04T08:21:07;94830.81;;;25.00;46.30
71194;BME280;58903;47.210;8.618;2022-10-04T08:23:54;94826.06;;;25.00;45.61
71194;BME280;58903;47.210;8.618;2022-10-04T08:26:44;94833.81;;;25.02;45.95
71194;BME280;58903;47.210;8.618;2022-10-04T08:29:39;94828.06;;;25.00;45.83
71194;BME280;58903;47.210;8.618;2022-10-04T08:32:17;94823.56;;;24.97;45.63
71194;BME280;58903;47.210;8.618;2022-10-04T08:47:47;94845.03;;;24.87;45.89
71194;BME280;58903;47.210;8.618;2022-10-04T08:50:57;94845.53;;;24.86;46.17
71194;BME280;58903;47.210;8.618;2022-10-04T08:53:45;94832.25;;;24.84;46.68
71194;BME280;58903;47.210;8.618;2022-10-04T09:15:24;94837.81;;;24.95;46.94
71194;BME280;58903;47.210;8.618;2022-10-04T09:20:57;94828.06;;;25.00;45.55
71194;BME280;58903;47.210;8.618;2022-10-04T09:28:42;94819.56;;;24.98;45.59
71194;BME280;58903;47.210;8.618;2022-10-04T09:47:03;94816.28;;;24.99;46.30
71194;BME280;58903;47.210;8.618;2022-10-04T09:52:43;94832.56;;;24.97;46.19
71194;BME280;58903;47.210;8.618;2022-10-04T09:55:21;94827.81;;;24.98;45.44
71194;BME280;58903;47.210;8.618;2022-10-04T10:11:42;94822.56;;;24.94;45.76
71194;BME280;58903;47.210;8.618;2022-10-04T11:03:09;94821.25;;;24.84;41.96
71194;BME280;58903;47.210;8.618;2022-10-04T11:06:09;94825.28;;;24.89;41.96
71194;BME280;58903;47.210;8.618;2022-10-04T11:17:55;94824.81;;;24.96;41.74
71194;BME280;58903;47.210;8.618;2022-10-04T11:46:25;94811.03;;;24.96;43.78
71194;BME280;58903;47.210;8.618;2022-10-04T12:34:23;94779.81;;;25.21;45.07
71194;BME280;58903;47.210;8.618;2022-10-04T12:54:08;94767.31;;;25.31;45.37
71194;BME280;58903;47.210;8.618;2022-10-04T12:57:04;94766.28;;;25.34;44.66
71194;BME280;58903;47.210;8.618;2022-10-04T13:11:43;94772.59;;;25.40;45.42
71194;BME280;58903;47.210;8.618;2022-10-04T13:21:15;94770.34;;;25.50;45.00
71194;BME280;58903;47.210;8.618;2022-10-04T13:24:03;94773.34;;;25.52;44.95
71194;BME280;58903;47.210;8.618;2022-10-04T13:26:58;94765.84;;;25.52;44.92
71194;BME280;58903;47.210;8.618;2022-10-04T13:29:31;94768.09;;;25.54;45.91
71194;BME280;58903;47.210;8.618;2022-10-04T13:32:29;94760.81;;;25.56;45.27
71194;BME280;58903;47.210;8.618;2022-10-04T13:35:09;94762.59;;;25.59;45.10
71194;BME280;58903;47.210;8.618;2022-10-04T13:52:54;94771.59;;;25.76;45.30
71194;BME280;58903;47.210;8.618;2022-10-04T14:28:54;94784.06;;;26.10;45.13
71194;BME280;58903;47.210;8.618;2022-10-04T14:54:53;94782.25;;;26.35;44.51
71194;BME280;58903;47.210;8.618;2022-10-04T14:57:46;94780.50;;;26.38;45.05
71194;BME280;58903;47.210;8.618;2022-10-04T15:00:19;94785.75;;;26.41;44.96
71194;BME280;58903;47.210;8.618;2022-10-04T15:03:12;94790.75;;;26.43;44.98
71194;BME280;58903;47.210;8.618;2022-10-04T15:13:34;94780.94;;;26.53;45.07
71194;BME280;58903;47.210;8.618;2022-10-04T15:16:21;94776.44;;;26.55;44.69
71194;BME280;58903;47.210;8.618;2022-10-04T15:27:34;94762.59;;;26.61;44.79
71194;BME280;58903;47.210;8.618;2022-10-04T15:41:02;94765.06;;;26.70;45.01
71194;BME280;58903;47.210;8.618;2022-10-04T15:50:25;94760.78;;;26.80;44.91
71194;BME280;58903;47.210;8.618;2022-10-04T15:59:25;94759.47;;;26.86;44.41
71194;BME280;58903;47.210;8.618;2022-10-04T16:05:21;94752.19;;;26.89;44.39
71194;BME280;58903;47.210;8.618;2022-10-04T16:08:28;94748.19;;;26.90;44.15
71194;BME280;58903;47.210;8.618;2022-10-04T16:18:10;94737.88;;;26.90;44.52
71194;BME280;58903;47.210;8.618;2022-10-04T16:21:27;94743.91;;;26.89;44.04
71194;BME280;58903;47.210;8.618;2022-10-04T16:49:01;94749.78;;;26.74;45.33
71194;BME280;58903;47.210;8.618;2022-10-04T16:55:00;94745.28;;;26.66;45.42
71194;BME280;58903;47.210;8.618;2022-10-04T17:09:36;94752.34;;;26.56;45.06
71194;BME280;58903;47.210;8.618;2022-10-04T17:21:43;94759.13;;;26.49;45.78
71194;BME280;58903;47.210;8.618;2022-10-04T17:44:23;94795.81;;;26.28;46.31
71194;BME280;58903;47.210;8.618;2022-10-04T17:54:23;94792.56;;;26.24;45.93
71194;BME280;58903;47.210;8.618;2022-10-04T17:57:20;94785.31;;;26.21;45.88
71194;BME280;58903;47.210;8.618;2022-10-04T18:00:15;94790.84;;;26.21;45.81
71194;BME280;58903;47.210;8.618;2022-10-04T18:03:25;94784.81;;;26.22;46.12
71194;BME280;58903;47.210;8.618;2022-10-04T18:17:48;94793.31;;;26.24;46.55
71194;BME280;58903;47.210;8.618;2022-10-04T18:20:18;94797.59;;;26.25;46.44
71194;BME280;58903;47.210;8.618;2022-10-04T18:23:12;94801.59;;;26.24;46.24
71194;BME280;58903;47.210;8.618;2022-10-04T18:25:40;94810.63;;;26.25;46.12
71194;BME280;58903;47.210;8.618;2022-10-04T18:30:50;94804.84;;;26.28;46.21
71194;BME280;58903;47.210;8.618;2022-10-04T18:33:22;94811.88;;;26.29;46.56
71194;BME280;58903;47.210;8.618;2022-10-04T18:38:28;94808.34;;;26.29;46.76
71194;BME280;58903;47.210;8.618;2022-10-04T18:41:00;94805.09;;;26.30;46.02
71194;BME280;58903;47.210;8.618;2022-10-04T18:43:34;94807.09;;;26.30;46.48
71194;BME280;58903;47.210;8.618;2022-10-04T18:46:24;94797.31;;;26.29;46.56
71194;BME280;58903;47.210;8.618;2022-10-04T18:48:54;94791.56;;;26.27;45.92
71194;BME280;58903;47.210;8.618;2022-10-04T18:51:25;94792.81;;;26.26;46.39
71194;BME280;58903;47.210;8.618;2022-10-04T19:00:20;94787.06;;;26.24;46.02
71194;BME280;58903;47.210;8.618;2022-10-04T19:17:34;94804.34;;;26.24;46.05
71194;BME280;58903;47.210;8.618;2022-10-04T19:20:15;94813.38;;;26.25;45.53
71194;BME280;58903;47.210;8.618;2022-10-04T19:25:46;94813.38;;;26.25;45.92
71194;BME280;58903;47.210;8.618;2022-10-04T19:28:26;94813.16;;;26.23;45.77
71194;BME280;58903;47.210;8.618;2022-10-04T19:37:32;94832.47;;;26.11;46.17
71194;BME280;58903;47.210;8.618;2022-10-04T19:48:00;94830.19;;;26.10;46.85
71194;BME280;58903;47.210;8.618;2022-10-04T19:51:01;94837.22;;;26.11;46.00
71194;BME280;58903;47.210;8.618;2022-10-04T19:53:41;94834.47;;;26.11;46.21
71194;BME280;58903;47.210;8.618;2022-10-04T19:56:18;94839.22;;;26.10;45.98
71194;BME280;58903;47.210;8.618;2022-10-04T20:02:11;94842.72;;;26.11;46.26
71194;BME280;58903;47.210;8.618;2022-10-04T20:04:39;94848.75;;;26.09;45.90
71194;BME280;58903;47.210;8.618;2022-10-04T20:12:35;94844.47;;;26.03;47.17
71194;BME280;58903;47.210;8.618;2022-10-04T20:17:48;94848.47;;;26.02;46.50
71194;BME280;58903;47.210;8.618;2022-10-04T20:21:01;94844.94;;;26.01;46.43
71194;BME280;58903;47.210;8.618;2022-10-04T20:23:48;94851.97;;;26.02;46.67
71194;BME280;58903;47.210;8.618;2022-10-04T20:35:10;94851.72;;;26.00;47.06
71194;BME280;58903;47.210;8.618;2022-10-04T20:43:24;94855.47;;;25.97;47.42
71194;BME280;58903;47.210;8.618;2022-10-04T20:46:00;94854.00;;;25.96;47.08
71194;BME280;58903;47.210;8.618;2022-10-04T20:48:52;94853.50;;;25.98;46.72
71194;BME280;58903;47.210;8.618;2022-10-04T20:51:25;94853.75;;;25.94;47.10
71194;BME280;58903;47.210;8.618;2022-10-04T20:53:58;94859.00;;;25.92;46.83
71194;BME280;58903;47.210;8.618;2022-10-04T20:56:47;94859.00;;;25.92;47.29
71194;BME280;58903;47.210;8.618;2022-10-04T20:59:22;94860.75;;;25.90;47.05
71194;BME280;58903;47.210;8.618;2022-10-04T21:02:03;94859.75;;;25.87;46.83
71194;BME280;58903;47.210;8.618;2022-10-04T21:04:48;94861.25;;;25.88;47.27
71194;BME280;58903;47.210;8.618;2022-10-04T21:07:34;94863.28;;;25.88;47.22
71194;BME280;58903;47.210;8.618;2022-10-04T21:11:02;94870.78;;;25.87;47.14
71194;BME280;58903;47.210;8.618;2022-10-04T21:13:55;94870.53;;;25.85;46.43
71194;BME280;58903;47.210;8.618;2022-10-04T21:16:56;94878.81;;;25.85;46.43
71194;BME280;58903;47.210;8.618;2022-10-04T21:19:42;94870.53;;;25.85;46.67
71194;BME280;58903;47.210;8.618;2022-10-04T21:25:03;94872.03;;;25.86;46.42
71194;BME280;58903;47.210;8.618;2022-10-04T21:27:37;94876.03;;;25.85;46.62
71194;BME280;58903;47.210;8.618;2022-10-04T21:30:12;94874.78;;;25.86;47.18
71194;BME280;58903;47.210;8.618;2022-10-04T21:32:41;94874.78;;;25.86;47.17
71194;BME280;58903;47.210;8.618;2022-10-04T21:35:08;94874.03;;;25.86;46.21
71194;BME280;58903;47.210;8.618;2022-10-04T21:37:36;94876.81;;;25.86;46.77
71194;BME280;58903;47.210;8.618;2022-10-04T21:40:11;94881.56;;;25.85;46.56
71194;BME280;58903;47.210;8.618;2022-10-04T21:42:41;94884.78;;;25.84;46.47
71194;BME280;58903;47.210;8.618;2022-10-04T21:45:19;94888.31;;;25.84;46.56
71194;BME280;58903;47.210;8.618;2022-10-04T21:47:51;94884.06;;;25.83;46.55
71194;BME280;58903;47.210;8.618;2022-10-04T21:50:17;94887.06;;;25.85;46.88
71194;BME280;58903;47.210;8.618;2022-10-04T21:52:43;94892.31;;;25.83;46.72
71194;BME280;58903;47.210;8.618;2022-10-04T21:55:35;94896.56;;;25.84;46.08
71194;BME280;58903;47.210;8.618;2022-10-04T21:58:10;94897.84;;;25.83;46.22
71194;BME280;58903;47.210;8.618;2022-10-04T22:00:52;94901.31;;;25.84;46.28
71194;BME280;58903;47.210;8.618;2022-10-04T22:03:39;94906.59;;;25.82;46.56
71194;BME280;58903;47.210;8.618;2022-10-04T22:06:20;94908.09;;;25.83;46.72
71194;BME280;58903;47.210;8.618;2022-10-04T22:08:59;94903.34;;;25.83;46.15
71194;BME280;58903;47.210;8.618;2022-10-04T22:11:38;94901.84;;;25.82;46.45
71194;BME280;58903;47.210;8.618;2022-10-04T22:14:13;94896.31;;;25.82;46.70
71194;BME280;58903;47.210;8.618;2022-10-04T22:16:43;94894.84;;;25.81;45.61
71194;BME280;58903;47.210;8.618;2022-10-04T22:19:10;94890.56;;;25.80;46.46
71194;BME280;58903;47.210;8.618;2022-10-04T22:21:51;94887.81;;;25.80;46.32
71194;BME280;58903;47.210;8.618;2022-10-04T22:24:46;94889.06;;;25.79;45.93
71194;BME280;58903;47.210;8.618;2022-10-04T22:27:17;94884.81;;;25.78;45.77
71194;BME280;58903;47.210;8.618;2022-10-04T22:29:46;94889.06;;;25.79;45.88
71194;BME280;58903;47.210;8.618;2022-10-04T22:32:24;94895.06;;;25.78;46.65
71194;BME280;58903;47.210;8.618;2022-10-04T22:34:56;94888.81;;;25.77;45.78
71194;BME280;58903;47.210;8.618;2022-10-04T22:37:25;94891.56;;;25.77;46.17
71194;BME280;58903;47.210;8.618;2022-10-04T22:39:54;94888.06;;;25.77;45.83
71194;BME280;58903;47.210;8.618;2022-10-04T22:42:52;94890.31;;;25.78;45.61
71194;BME280;58903;47.210;8.618;2022-10-04T22:45:30;94897.09;;;25.77;46.45
71194;BME280;58903;47.210;8.618;2022-10-04T22:48:10;94897.09;;;25.77;45.95
71194;BME280;58903;47.210;8.618;2022-10-04T22:50:38;94899.84;;;25.77;45.70
71194;BME280;58903;47.210;8.618;2022-10-04T22:53:16;94898.31;;;25.76;45.78
71194;BME280;58903;47.210;8.618;2022-10-04T22:55:50;94899.56;;;25.75;45.83
71194;BME280;58903;47.210;8.618;2022-10-04T22:58:26;94909.34;;;25.76;46.17
71194;BME280;58903;47.210;8.618;2022-10-04T23:00:53;94902.31;;;25.75;45.78
71194;BME280;58903;47.210;8.618;2022-10-04T23:03:34;94902.06;;;25.73;46.16
71194;BME280;58903;47.210;8.618;2022-10-04T23:06:01;94897.31;;;25.74;46.53
71194;BME280;58903;47.210;8.618;2022-10-04T23:08:36;94893.06;;;25.73;45.95
71194;BME280;58903;47.210;8.618;2022-10-04T23:14:23;94899.06;;;25.71;46.45
71194;BME280;58903;47.210;8.618;2022-10-04T23:17:00;94906.09;;;25.72;45.71
71194;BME280;58903;47.210;8.618;2022-10-04T23:19:36;94909.59;;;25.73;46.03
71194;BME280;58903;47.210;8.618;2022-10-04T23:22:16;94906.34;;;25.74;46.16
71194;BME280;58903;47.210;8.618;2022-10-04T23:24:44;94903.34;;;25.72;46.25
71194;BME280;58903;47.210;8.618;2022-10-04T23:27:22;94897.81;;;25.72;46.10
71194;BME280;58903;47.210;8.618;2022-10-04T23:30:00;94894.06;;;25.70;45.55
71194;BME280;58903;47.210;8.618;2022-10-04T23:32:27;94901.56;;;25.69;46.15
71194;BME280;58903;47.210;8.618;2022-10-04T23:34:57;94893.31;;;25.69;46.15
71194;BME280;58903;47.210;8.618;2022-10-04T23:37:29;94891.31;;;25.70;45.92
71194;BME280;58903;47.210;8.618;2022-10-04T23:40:08;94898.06;;;25.69;46.00
71194;BME280;58903;47.210;8.618;2022-10-04T23:42:41;94887.03;;;25.69;46.01
71194;BME280;58903;47.210;8.618;2022-10-04T23:45:28;94890.56;;;25.69;46.09
71194;BME280;58903;47.210;8.618;2022-10-04T23:48:00;94891.81;;;25.68;46.20
71194;BME280;58903;47.210;8.618;2022-10-04T23:50:39;94890.31;;;25.67;45.95
71194;BME280;58903;47.210;8.618;2022-10-04T23:53:22;94891.81;;;25.68;46.31
71194;BME280;58903;47.210;8.618;2022-10-04T23:56:03;94889.06;;;25.68;45.84
71194;BME280;58903;47.210;8.618;2022-10-04T23:58:39;94889.53;;;25.67;45.94
